sensor_id;sensor_type;location;lat;lon;timestamp;pressure;altitude;pressure_sealevel;temperature;humidity
3697;BME280;60662;48.810;8.872;2023-05-22T04:38:58;96255.03;;;12.06;95.37
3697;BME280;60662;48.810;8.872;2023-05-22T04:40:00;96255.31;;;12.16;95.42
3697;BME280;60662;48.810;8.872;2023-05-22T06:42:24;96284.69;;;17.92;77.70
3697;BME280;60662;48.810;8.872;2023-05-22T06:44:41;96288.22;;;18.36;76.43
3697;BME280;60662;48.810;8.872;2023-05-22T06:46:54;96280.75;;;18.41;76.01
3697;BME280;60662;48.810;8.872;2023-05-22T06:49:18;96281.75;;;18.83;75.95
3697;BME280;60662;48.810;8.872;2023-05-22T06:50:20;96280.31;;;18.90;74.47
3697;BME280;60662;48.810;8.872;2023-05-22T06:52:38;96264.88;;;19.16;73.55
3697;BME280;60662;48.810;8.872;2023-05-22T06:53:40;96287.97;;;19.45;73.04
3697;BME280;60662;48.810;8.872;2023-05-22T06:54:41;96286.34;;;19.54;72.13
3697;BME280;60662;48.810;8.872;2023-05-22T06:55:44;96292.97;;;19.69;70.48
3697;BME280;60662;48.810;8.872;2023-05-22T06:56:45;96275.66;;;19.55;70.03
3697;BME280;60662;48.810;8.872;2023-05-22T06:57:47;96289.75;;;19.75;71.30
3697;BME280;60662;48.810;8.872;2023-05-22T06:58:48;96296.00;;;19.86;71.71
3697;BME280;60662;48.810;8.872;2023-05-22T06:59:50;96301.31;;;19.65;70.97
3697;BME280;60662;48.810;8.872;2023-05-22T07:00:51;96302.75;;;19.79;71.55
3697;BME280;60662;48.810;8.872;2023-05-22T07:01:54;96296.97;;;19.85;70.18
3697;BME280;60662;48.810;8.872;2023-05-22T07:02:56;96292.69;;;20.13;70.48
3697;BME280;60662;48.810;8.872;2023-05-22T07:03:58;96294.97;;;20.37;69.86
3697;BME280;60662;48.810;8.872;2023-05-22T07:05:05;96277.38;;;20.27;67.45
3697;BME280;60662;48.810;8.872;2023-05-22T07:06:07;96304.63;;;20.48;67.15
3697;BME280;60662;48.810;8.872;2023-05-22T07:07:09;96295.13;;;20.46;67.17
3697;BME280;60662;48.810;8.872;2023-05-22T07:08:11;96300.38;;;20.06;67.40
3697;BME280;60662;48.810;8.872;2023-05-22T07:09:13;96303.31;;;20.23;67.38
3697;BME280;60662;48.810;8.872;2023-05-22T07:10:15;96304.59;;;20.68;66.75
3697;BME280;60662;48.810;8.872;2023-05-22T07:11:17;96301.69;;;20.61;65.33
3697;BME280;60662;48.810;8.872;2023-05-22T07:12:18;96303.63;;;20.69;65.01
3697;BME280;60662;48.810;8.872;2023-05-22T07:13:21;96308.66;;;20.62;65.91
3697;BME280;60662;48.810;8.872;2023-05-22T07:14:23;96300.69;;;20.43;66.77
3697;BME280;60662;48.810;8.872;2023-05-22T07:15:24;96306.00;;;20.52;67.15
3697;BME280;60662;48.810;8.872;2023-05-22T07:16:26;96298.06;;;20.72;65.63
3697;BME280;60662;48.810;8.872;2023-05-22T07:17:28;96305.06;;;20.73;66.22
3697;BME280;60662;48.810;8.872;2023-05-22T07:18:29;96312.88;;;20.84;65.78
3697;BME280;60662;48.810;8.872;2023-05-22T07:19:31;96300.81;;;21.29;64.74
3697;BME280;60662;48.810;8.872;2023-05-22T07:20:33;96301.41;;;21.03;65.38
3697;BME280;60662;48.810;8.872;2023-05-22T07:21:34;96300.25;;;20.37;65.61
3697;BME280;60662;48.810;8.872;2023-05-22T07:22:37;96306.13;;;20.31;66.22
3697;BME280;60662;48.810;8.872;2023-05-22T07:23:38;96312.00;;;20.64;66.31
3697;BME280;60662;48.810;8.872;2023-05-22T07:24:40;96316.94;;;20.79;65.19
3697;BME280;60662;48.810;8.872;2023-05-22T07:25:41;96318.63;;;20.80;65.40
3697;BME280;60662;48.810;8.872;2023-05-22T07:26:43;96309.66;;;20.91;64.77
3697;BME280;60662;48.810;8.872;2023-05-22T07:27:46;96311.75;;;20.97;65.50
3697;BME280;60662;48.810;8.872;2023-05-22T07:28:49;96309.78;;;21.09;66.47
3697;BME280;60662;48.810;8.872;2023-05-22T07:29:50;96312.53;;;21.27;64.58
3697;BME280;60662;48.810;8.872;2023-05-22T07:30:52;96304.06;;;21.03;65.48
3697;BME280;60662;48.810;8.872;2023-05-22T07:31:53;96317.47;;;21.12;65.02
3697;BME280;60662;48.810;8.872;2023-05-22T07:32:55;96315.94;;;20.99;65.34
3697;BME280;60662;48.810;8.872;2023-05-22T07:33:57;96315.78;;;21.20;65.21
3697;BME280;60662;48.810;8.872;2023-05-22T07:34:58;96316.91;;;20.88;64.35
3697;BME280;60662;48.810;8.872;2023-05-22T07:36:00;96324.59;;;20.82;64.50
3697;BME280;60662;48.810;8.872;2023-05-22T07:37:10;96307.00;;;21.00;63.73
3697;BME280;60662;48.810;8.872;2023-05-22T07:38:11;96302.25;;;21.04;64.28
3697;BME280;60662;48.810;8.872;2023-05-22T07:39:13;96323.59;;;21.12;64.63
3697;BME280;60662;48.810;8.872;2023-05-22T07:40:14;96319.97;;;21.23;64.40
3697;BME280;60662;48.810;8.872;2023-05-22T07:41:16;96319.25;;;21.21;64.61
3697;BME280;60662;48.810;8.872;2023-05-22T07:42:18;96321.03;;;21.40;63.27
3697;BME280;60662;48.810;8.872;2023-05-22T07:43:19;96320.78;;;21.14;64.68
3697;BME280;60662;48.810;8.872;2023-05-22T07:44:21;96318.13;;;21.33;63.75
3697;BME280;60662;48.810;8.872;2023-05-22T07:45:23;96319.91;;;21.43;62.87
3697;BME280;60662;48.810;8.872;2023-05-22T07:46:24;96314.75;;;21.41;63.10
3697;BME280;60662;48.810;8.872;2023-05-22T07:47:26;96312.44;;;21.66;63.65
3697;BME280;60662;48.810;8.872;2023-05-22T07:48:28;96318.31;;;21.97;62.69
3697;BME280;60662;48.810;8.872;2023-05-22T07:49:29;96317.59;;;22.23;61.41
3697;BME280;60662;48.810;8.872;2023-05-22T07:50:31;96320.78;;;22.55;60.62
3697;BME280;60662;48.810;8.872;2023-05-22T07:51:34;96314.47;;;22.92;60.32
3697;BME280;60662;48.810;8.872;2023-05-22T07:52:35;96315.94;;;22.86;60.40
3697;BME280;60662;48.810;8.872;2023-05-22T07:53:37;96317.53;;;22.61;59.75
3697;BME280;60662;48.810;8.872;2023-05-22T07:54:38;96322.41;;;22.47;59.87
3697;BME280;60662;48.810;8.872;2023-05-22T07:55:42;96317.75;;;22.49;59.71
3697;BME280;60662;48.810;8.872;2023-05-22T07:56:44;96315.78;;;22.70;57.24
3697;BME280;60662;48.810;8.872;2023-05-22T07:57:46;96320.25;;;22.51;58.54
3697;BME280;60662;48.810;8.872;2023-05-22T07:58:47;96320.53;;;22.30;59.66
3697;BME280;60662;48.810;8.872;2023-05-22T07:59:49;96320.50;;;22.12;60.53
3697;BME280;60662;48.810;8.872;2023-05-22T08:00:51;96325.63;;;21.95;60.70
3697;BME280;60662;48.810;8.872;2023-05-22T08:01:53;96324.72;;;22.05;61.20
3697;BME280;60662;48.810;8.872;2023-05-22T08:02:55;96329.09;;;21.96;60.07
3697;BME280;60662;48.810;8.872;2023-05-22T08:03:57;96329.50;;;22.01;60.74
3697;BME280;60662;48.810;8.872;2023-05-22T08:04:59;96322.69;;;21.89;61.27
3697;BME280;60662;48.810;8.872;2023-05-22T08:06:02;96326.75;;;21.55;60.44
3697;BME280;60662;48.810;8.872;2023-05-22T08:07:03;96331.50;;;21.61;60.52
3697;BME280;60662;48.810;8.872;2023-05-22T08:08:05;96332.47;;;21.60;60.95
3697;BME280;60662;48.810;8.872;2023-05-22T08:09:07;96328.53;;;21.64;60.58
3697;BME280;60662;48.810;8.872;2023-05-22T08:10:13;96333.25;;;21.71;60.97
3697;BME280;60662;48.810;8.872;2023-05-22T08:11:15;96325.75;;;21.94;60.92
3697;BME280;60662;48.810;8.872;2023-05-22T08:12:16;96335.13;;;21.98;60.27
3697;BME280;60662;48.810;8.872;2023-05-22T08:13:18;96331.66;;;22.15;61.77
3697;BME280;60662;48.810;8.872;2023-05-22T08:14:20;96335.50;;;22.31;61.15
3697;BME280;60662;48.810;8.872;2023-05-22T08:15:22;96331.31;;;22.28;60.52
3697;BME280;60662;48.810;8.872;2023-05-22T08:16:23;96328.94;;;22.25;60.65
3697;BME280;60662;48.810;8.872;2023-05-22T08:17:25;96329.56;;;22.09;60.37
3697;BME280;60662;48.810;8.872;2023-05-22T08:18:27;96336.91;;;21.97;61.33
3697;BME280;60662;48.810;8.872;2023-05-22T08:19:30;96332.16;;;22.01;60.76
3697;BME280;60662;48.810;8.872;2023-05-22T08:20:32;96330.63;;;21.98;61.02
3697;BME280;60662;48.810;8.872;2023-05-22T08:21:34;96324.72;;;22.32;61.47
3697;BME280;60662;48.810;8.872;2023-05-22T08:22:37;96331.00;;;22.77;61.45
3697;BME280;60662;48.810;8.872;2023-05-22T08:23:39;96335.84;;;23.18;61.00
3697;BME280;60662;48.810;8.872;2023-05-22T08:24:40;96334.41;;;23.50;58.41
3697;BME280;60662;48.810;8.872;2023-05-22T08:25:42;96331.78;;;23.58;58.64
3697;BME280;60662;48.810;8.872;2023-05-22T08:26:44;96318.94;;;23.88;57.80
3697;BME280;60662;48.810;8.872;2023-05-22T08:27:45;96326.22;;;23.78;59.32
3697;BME280;60662;48.810;8.872;2023-05-22T08:28:46;96321.69;;;23.70;58.34
3697;BME280;60662;48.810;8.872;2023-05-22T08:29:48;96322.84;;;23.68;59.66
3697;BME280;60662;48.810;8.872;2023-05-22T08:30:50;96319.94;;;23.26;58.99
3697;BME280;60662;48.810;8.872;2023-05-22T08:31:52;96325.03;;;23.20;58.98
3697;BME280;60662;48.810;8.872;2023-05-22T08:32:57;96325.75;;;23.48;59.07
3697;BME280;60662;48.810;8.872;2023-05-22T08:33:58;96327.00;;;23.36;59.66
3697;BME280;60662;48.810;8.872;2023-05-22T08:35:03;96319.09;;;23.52;59.73
3697;BME280;60662;48.810;8.872;2023-05-22T08:36:05;96314.75;;;23.51;59.35
3697;BME280;60662;48.810;8.872;2023-05-22T08:37:07;96318.00;;;23.63;58.69
3697;BME280;60662;48.810;8.872;2023-05-22T08:38:09;96323.78;;;23.58;58.21
3697;BME280;60662;48.810;8.872;2023-05-22T08:39:11;96316.78;;;23.31;59.67
3697;BME280;60662;48.810;8.872;2023-05-22T08:40:13;96299.22;;;22.76;59.48
3697;BME280;60662;48.810;8.872;2023-05-22T08:41:15;96311.50;;;22.59;60.34
3697;BME280;60662;48.810;8.872;2023-05-22T08:42:16;96320.03;;;22.44;61.15
3697;BME280;60662;48.810;8.872;2023-05-22T08:43:19;96314.34;;;22.57;61.12
3697;BME280;60662;48.810;8.872;2023-05-22T08:44:21;96312.75;;;22.64;61.37
3697;BME280;60662;48.810;8.872;2023-05-22T08:45:23;96317.00;;;22.29;61.56
3697;BME280;60662;48.810;8.872;2023-05-22T08:46:27;96309.84;;;22.40;61.63
3697;BME280;60662;48.810;8.872;2023-05-22T08:47:33;96317.41;;;22.34;61.93
3697;BME280;60662;48.810;8.872;2023-05-22T08:48:36;96318.91;;;22.19;61.47
3697;BME280;60662;48.810;8.872;2023-05-22T08:49:38;96319.84;;;22.00;61.99
3697;BME280;60662;48.810;8.872;2023-05-22T08:50:41;96307.00;;;21.95;62.36
3697;BME280;60662;48.810;8.872;2023-05-22T08:51:46;96316.25;;;21.91;63.98
3697;BME280;60662;48.810;8.872;2023-05-22T08:52:54;96303.22;;;21.98;63.10
3697;BME280;60662;48.810;8.872;2023-05-22T08:53:57;96315.50;;;21.99;63.57
3697;BME280;60662;48.810;8.872;2023-05-22T08:55:02;96313.78;;;22.08;63.40
3697;BME280;60662;48.810;8.872;2023-05-22T08:56:06;96318.81;;;22.11;63.80
3697;BME280;60662;48.810;8.872;2023-05-22T08:57:09;96312.97;;;22.25;63.59
3697;BME280;60662;48.810;8.872;2023-05-22T08:58:11;96314.00;;;22.42;62.59
3697;BME280;60662;48.810;8.872;2023-05-22T08:59:12;96314.94;;;22.51;63.48
3697;BME280;60662;48.810;8.872;2023-05-22T09:00:15;96317.16;;;22.38;62.46
3697;BME280;60662;48.810;8.872;2023-05-22T09:01:17;96315.06;;;22.31;62.29
3697;BME280;60662;48.810;8.872;2023-05-22T09:02:19;96318.41;;;22.33;62.91
3697;BME280;60662;48.810;8.872;2023-05-22T09:03:21;96314.03;;;22.14;63.01
3697;BME280;60662;48.810;8.872;2023-05-22T09:04:23;96314.69;;;21.98;63.62
3697;BME280;60662;48.810;8.872;2023-05-22T09:05:25;96315.66;;;21.97;63.56
3697;BME280;60662;48.810;8.872;2023-05-22T09:06:28;96318.91;;;22.19;63.72
3697;BME280;60662;48.810;8.872;2023-05-22T09:07:30;96316.16;;;22.39;63.70
3697;BME280;60662;48.810;8.872;2023-05-22T09:08:31;96318.84;;;22.57;63.37
3697;BME280;60662;48.810;8.872;2023-05-22T09:09:37;96321.72;;;22.45;63.51
3697;BME280;60662;48.810;8.872;2023-05-22T09:10:39;96317.31;;;22.26;64.26
3697;BME280;60662;48.810;8.872;2023-05-22T09:11:41;96312.00;;;22.26;63.72
3697;BME280;60662;48.810;8.872;2023-05-22T09:14:08;96322.16;;;22.13;63.94
3697;BME280;60662;48.810;8.872;2023-05-22T09:15:10;96319.28;;;21.96;64.97
3697;BME280;60662;48.810;8.872;2023-05-22T09:16:12;96311.28;;;22.06;64.60
3697;BME280;60662;48.810;8.872;2023-05-22T09:17:14;96311.31;;;22.24;64.64
3697;BME280;60662;48.810;8.872;2023-05-22T09:18:16;96327.47;;;22.41;64.15
3697;BME280;60662;48.810;8.872;2023-05-22T09:19:18;96315.47;;;22.55;63.83
3697;BME280;60662;48.810;8.872;2023-05-22T09:20:20;96314.28;;;22.67;64.08
3697;BME280;60662;48.810;8.872;2023-05-22T09:21:26;96324.53;;;22.80;63.08
3697;BME280;60662;48.810;8.872;2023-05-22T09:22:37;96321.56;;;22.83;62.74
3697;BME280;60662;48.810;8.872;2023-05-22T09:23:39;96321.25;;;22.86;62.92
3697;BME280;60662;48.810;8.872;2023-05-22T09:24:43;96318.81;;;22.93;63.28
3697;BME280;60662;48.810;8.872;2023-05-22T09:25:46;96319.56;;;22.85;62.88
3697;BME280;60662;48.810;8.872;2023-05-22T09:26:47;96318.59;;;22.68;62.63
3697;BME280;60662;48.810;8.872;2023-05-22T09:27:49;96326.03;;;22.46;63.05
3697;BME280;60662;48.810;8.872;2023-05-22T09:28:50;96325.66;;;22.41;63.48
3697;BME280;60662;48.810;8.872;2023-05-22T09:29:54;96324.38;;;22.45;63.61
3697;BME280;60662;48.810;8.872;2023-05-22T09:31:00;96323.56;;;22.35;63.42
3697;BME280;60662;48.810;8.872;2023-05-22T09:32:12;96323.44;;;22.37;63.07
3697;BME280;60662;48.810;8.872;2023-05-22T09:33:15;96314.50;;;22.56;63.51
3697;BME280;60662;48.810;8.872;2023-05-22T09:34:17;96319.81;;;22.56;63.02
3697;BME280;60662;48.810;8.872;2023-05-22T09:35:19;96314.97;;;22.69;62.89
3697;BME280;60662;48.810;8.872;2023-05-22T09:36:21;96315.41;;;22.82;62.38
3697;BME280;60662;48.810;8.872;2023-05-22T09:37:23;96315.97;;;23.12;62.70
3697;BME280;60662;48.810;8.872;2023-05-22T09:38:26;96315.75;;;23.24;62.07
3697;BME280;60662;48.810;8.872;2023-05-22T09:39:39;96311.41;;;23.23;62.09
3697;BME280;60662;48.810;8.872;2023-05-22T09:40:41;96312.19;;;23.15;61.79
3697;BME280;60662;48.810;8.872;2023-05-22T09:41:43;96310.81;;;23.11;62.57
3697;BME280;60662;48.810;8.872;2023-05-22T09:42:44;96307.91;;;23.22;61.70
3697;BME280;60662;48.810;8.872;2023-05-22T09:43:49;96312.94;;;23.52;61.39
3697;BME280;60662;48.810;8.872;2023-05-22T09:44:51;96308.91;;;23.47;61.36
3697;BME280;60662;48.810;8.872;2023-05-22T09:45:58;96306.22;;;23.74;60.57
3697;BME280;60662;48.810;8.872;2023-05-22T09:47:02;96308.38;;;24.05;60.23
3697;BME280;60662;48.810;8.872;2023-05-22T09:48:05;96310.78;;;24.24;60.99
3697;BME280;60662;48.810;8.872;2023-05-22T09:49:07;96302.03;;;23.98;59.71
3697;BME280;60662;48.810;8.872;2023-05-22T09:50:09;96309.06;;;23.72;58.47
3697;BME280;60662;48.810;8.872;2023-05-22T09:51:11;96297.19;;;23.67;57.68
3697;BME280;60662;48.810;8.872;2023-05-22T09:52:14;96307.72;;;23.76;56.71
3697;BME280;60662;48.810;8.872;2023-05-22T09:53:17;96305.59;;;23.80;56.76
3697;BME280;60662;48.810;8.872;2023-05-22T09:54:23;96306.22;;;24.08;57.37
3697;BME280;60662;48.810;8.872;2023-05-22T09:55:26;96305.41;;;24.08;57.27
3697;BME280;60662;48.810;8.872;2023-05-22T09:56:29;96306.38;;;24.07;56.13
3697;BME280;60662;48.810;8.872;2023-05-22T09:57:42;96297.63;;;24.31;56.33
3697;BME280;60662;48.810;8.872;2023-05-22T09:58:49;96306.97;;;24.35;55.25
3697;BME280;60662;48.810;8.872;2023-05-22T09:59:53;96311.53;;;24.59;55.61
3697;BME280;60662;48.810;8.872;2023-05-22T10:00:59;96311.38;;;24.61;54.23
3697;BME280;60662;48.810;8.872;2023-05-22T10:02:01;96312.25;;;24.94;52.93
3697;BME280;60662;48.810;8.872;2023-05-22T10:03:09;96308.91;;;25.42;53.87
3697;BME280;60662;48.810;8.872;2023-05-22T10:04:17;96308.53;;;25.62;54.22
3697;BME280;60662;48.810;8.872;2023-05-22T10:05:19;96315.28;;;25.89;53.52
3697;BME280;60662;48.810;8.872;2023-05-22T10:06:23;96303.69;;;26.13;52.68
3697;BME280;60662;48.810;8.872;2023-05-22T10:07:30;96308.38;;;26.11;51.88
3697;BME280;60662;48.810;8.872;2023-05-22T10:08:39;96301.09;;;26.28;51.50
3697;BME280;60662;48.810;8.872;2023-05-22T10:09:44;96303.50;;;26.15;50.56
3697;BME280;60662;48.810;8.872;2023-05-22T10:10:51;96305.09;;;26.32;52.00
3697;BME280;60662;48.810;8.872;2023-05-22T10:11:54;96311.19;;;26.18;52.40
3697;BME280;60662;48.810;8.872;2023-05-22T10:13:00;96310.31;;;26.26;52.12
3697;BME280;60662;48.810;8.872;2023-05-22T10:14:03;96308.50;;;26.49;51.94
3697;BME280;60662;48.810;8.872;2023-05-22T10:15:06;96306.34;;;26.45;52.29
3697;BME280;60662;48.810;8.872;2023-05-22T10:16:09;96305.19;;;26.16;53.15
3697;BME280;60662;48.810;8.872;2023-05-22T10:17:13;96303.03;;;25.47;52.91
3697;BME280;60662;48.810;8.872;2023-05-22T10:18:17;96309.75;;;26.07;51.89
3697;BME280;60662;48.810;8.872;2023-05-22T10:19:18;96310.22;;;26.11;52.36
3697;BME280;60662;48.810;8.872;2023-05-22T10:20:20;96307.09;;;25.90;51.33
3697;BME280;60662;48.810;8.872;2023-05-22T10:21:22;96301.81;;;25.74;51.53
3697;BME280;60662;48.810;8.872;2023-05-22T10:22:26;96307.72;;;25.53;53.07
3697;BME280;60662;48.810;8.872;2023-05-22T10:23:29;96312.81;;;25.79;52.96
3697;BME280;60662;48.810;8.872;2023-05-22T10:24:31;96300.34;;;26.11;53.38
3697;BME280;60662;48.810;8.872;2023-05-22T10:25:34;96305.34;;;26.14;53.47
3697;BME280;60662;48.810;8.872;2023-05-22T10:26:36;96310.22;;;26.11;53.06
3697;BME280;60662;48.810;8.872;2023-05-22T10:27:39;96308.91;;;25.98;54.29
3697;BME280;60662;48.810;8.872;2023-05-22T10:28:44;96300.53;;;26.10;54.20
3697;BME280;60662;48.810;8.872;2023-05-22T10:29:54;96308.41;;;25.95;53.44
3697;BME280;60662;48.810;8.872;2023-05-22T10:31:10;96299.59;;;25.86;53.74
3697;BME280;60662;48.810;8.872;2023-05-22T10:32:32;96302.53;;;26.39;53.86
3697;BME280;60662;48.810;8.872;2023-05-22T10:33:40;96301.59;;;26.55;51.79
3697;BME280;60662;48.810;8.872;2023-05-22T10:35:35;96296.03;;;26.02;53.23
3697;BME280;60662;48.810;8.872;2023-05-22T10:39:48;96291.88;;;26.31;52.84
3697;BME280;60662;48.810;8.872;2023-05-22T10:40:53;96290.25;;;26.53;53.18
3697;BME280;60662;48.810;8.872;2023-05-22T10:41:55;96294.72;;;26.61;52.96
3697;BME280;60662;48.810;8.872;2023-05-22T10:43:01;96292.53;;;26.87;52.63
3697;BME280;60662;48.810;8.872;2023-05-22T10:44:04;96295.09;;;27.04;53.46
3697;BME280;60662;48.810;8.872;2023-05-22T10:45:06;96288.94;;;27.33;53.13
3697;BME280;60662;48.810;8.872;2023-05-22T10:46:11;96288.34;;;27.46;53.28
3697;BME280;60662;48.810;8.872;2023-05-22T10:47:13;96287.00;;;27.27;52.73
3697;BME280;60662;48.810;8.872;2023-05-22T10:48:20;96284.88;;;27.23;51.51
3697;BME280;60662;48.810;8.872;2023-05-22T10:49:22;96286.84;;;27.29;51.02
3697;BME280;60662;48.810;8.872;2023-05-22T10:50:24;96292.03;;;27.60;49.77
3697;BME280;60662;48.810;8.872;2023-05-22T10:51:25;96282.53;;;27.88;50.99
3697;BME280;60662;48.810;8.872;2023-05-22T10:52:27;96285.69;;;28.06;49.45
3697;BME280;60662;48.810;8.872;2023-05-22T10:53:31;96285.88;;;27.75;48.97
3697;BME280;60662;48.810;8.872;2023-05-22T10:54:43;96279.19;;;28.15;49.72
3697;BME280;60662;48.810;8.872;2023-05-22T10:55:52;96275.75;;;28.22;48.25
3697;BME280;60662;48.810;8.872;2023-05-22T10:57:08;96281.16;;;28.43;46.91
3697;BME280;60662;48.810;8.872;2023-05-22T10:58:15;96282.88;;;28.51;48.76
3697;BME280;60662;48.810;8.872;2023-05-22T10:59:17;96282.94;;;28.58;48.07
3697;BME280;60662;48.810;8.872;2023-05-22T11:00:36;96277.00;;;28.77;46.96
3697;BME280;60662;48.810;8.872;2023-05-22T11:01:37;96282.50;;;28.54;47.95
3697;BME280;60662;48.810;8.872;2023-05-22T11:02:44;96279.66;;;28.56;47.67
3697;BME280;60662;48.810;8.872;2023-05-22T11:03:59;96284.53;;;28.89;47.11
3697;BME280;60662;48.810;8.872;2023-05-22T11:06:40;96277.53;;;28.14;48.31
3697;BME280;60662;48.810;8.872;2023-05-22T11:07:43;96267.34;;;28.46;48.13
3697;BME280;60662;48.810;8.872;2023-05-22T11:08:47;96279.34;;;28.87;47.11
3697;BME280;60662;48.810;8.872;2023-05-22T11:09:58;96276.56;;;28.22;46.69
3697;BME280;60662;48.810;8.872;2023-05-22T11:11:09;96276.69;;;27.99;47.93
3697;BME280;60662;48.810;8.872;2023-05-22T11:13:25;96279.09;;;28.82;48.29
3697;BME280;60662;48.810;8.872;2023-05-22T11:14:29;96275.56;;;29.03;46.77
3697;BME280;60662;48.810;8.872;2023-05-22T11:15:31;96281.41;;;29.13;46.94
3697;BME280;60662;48.810;8.872;2023-05-22T11:16:32;96266.22;;;28.99;46.14
3697;BME280;60662;48.810;8.872;2023-05-22T11:18:39;96267.06;;;29.28;46.06
3697;BME280;60662;48.810;8.872;2023-05-22T11:19:40;96268.47;;;29.24;44.72
3697;BME280;60662;48.810;8.872;2023-05-22T11:20:42;96264.34;;;28.99;45.58
3697;BME280;60662;48.810;8.872;2023-05-22T11:21:45;96270.63;;;29.07;45.84
3697;BME280;60662;48.810;8.872;2023-05-22T11:23:52;96268.13;;;28.62;45.90
3697;BME280;60662;48.810;8.872;2023-05-22T11:24:53;96268.13;;;28.62;47.22
3697;BME280;60662;48.810;8.872;2023-05-22T11:25:55;96276.47;;;28.89;46.89
3697;BME280;60662;48.810;8.872;2023-05-22T11:27:01;96273.94;;;29.09;46.01
3697;BME280;60662;48.810;8.872;2023-05-22T11:28:05;96274.34;;;29.06;44.91
3697;BME280;60662;48.810;8.872;2023-05-22T11:29:07;96269.09;;;29.47;46.06
3697;BME280;60662;48.810;8.872;2023-05-22T11:30:10;96266.63;;;29.24;45.91
3697;BME280;60662;48.810;8.872;2023-05-22T11:31:12;96269.59;;;29.29;46.19
3697;BME280;60662;48.810;8.872;2023-05-22T11:32:15;96262.31;;;29.58;45.96
3697;BME280;60662;48.810;8.872;2023-05-22T11:33:22;96262.34;;;30.00;44.69
3697;BME280;60662;48.810;8.872;2023-05-22T11:34:24;96258.75;;;29.23;44.12
3697;BME280;60662;48.810;8.872;2023-05-22T11:35:27;96260.38;;;29.45;44.39
3697;BME280;60662;48.810;8.872;2023-05-22T11:36:28;96261.06;;;29.54;45.08
3697;BME280;60662;48.810;8.872;2023-05-22T11:37:30;96243.19;;;29.40;45.60
3697;BME280;60662;48.810;8.872;2023-05-22T11:38:33;96256.75;;;29.95;44.32
3697;BME280;60662;48.810;8.872;2023-05-22T11:39:35;96255.91;;;29.94;45.20
3697;BME280;60662;48.810;8.872;2023-05-22T11:40:36;96262.03;;;29.46;43.97
3697;BME280;60662;48.810;8.872;2023-05-22T11:41:38;96251.00;;;29.35;44.31
3697;BME280;60662;48.810;8.872;2023-05-22T11:42:40;96258.22;;;29.62;43.79
3697;BME280;60662;48.810;8.872;2023-05-22T11:43:41;96250.63;;;30.21;43.52
3697;BME280;60662;48.810;8.872;2023-05-22T11:44:43;96255.94;;;30.01;42.78
3697;BME280;60662;48.810;8.872;2023-05-22T11:45:45;96258.16;;;29.56;43.28
3697;BME280;60662;48.810;8.872;2023-05-22T11:46:47;96259.31;;;29.75;43.97
3697;BME280;60662;48.810;8.872;2023-05-22T11:47:48;96258.94;;;29.49;43.37
3697;BME280;60662;48.810;8.872;2023-05-22T11:48:50;96238.41;;;29.70;43.38
3697;BME280;60662;48.810;8.872;2023-05-22T11:49:52;96248.22;;;29.91;44.39
3697;BME280;60662;48.810;8.872;2023-05-22T11:50:55;96247.28;;;30.12;42.96
3697;BME280;60662;48.810;8.872;2023-05-22T11:51:57;96241.25;;;30.10;43.62
3697;BME280;60662;48.810;8.872;2023-05-22T11:52:58;96243.19;;;30.23;43.22
3697;BME280;60662;48.810;8.872;2023-05-22T11:54:00;96239.31;;;29.49;43.32
3697;BME280;60662;48.810;8.872;2023-05-22T11:55:03;96247.63;;;29.96;43.67
3697;BME280;60662;48.810;8.872;2023-05-22T11:56:08;96245.84;;;30.10;44.25
3697;BME280;60662;48.810;8.872;2023-05-22T11:57:09;96246.28;;;30.27;43.62
3697;BME280;60662;48.810;8.872;2023-05-22T11:58:11;96245.56;;;30.60;41.28
3697;BME280;60662;48.810;8.872;2023-05-22T11:59:12;96243.94;;;29.97;42.30
3697;BME280;60662;48.810;8.872;2023-05-22T12:00:14;96239.78;;;30.01;42.42
3697;BME280;60662;48.810;8.872;2023-05-22T12:01:16;96250.03;;;30.26;43.08
3697;BME280;60662;48.810;8.872;2023-05-22T12:02:18;96243.56;;;29.72;43.05
3697;BME280;60662;48.810;8.872;2023-05-22T12:03:20;96249.38;;;29.75;43.77
3697;BME280;60662;48.810;8.872;2023-05-22T12:04:22;96254.47;;;29.63;42.25
3697;BME280;60662;48.810;8.872;2023-05-22T12:05:23;96253.50;;;30.13;43.32
3697;BME280;60662;48.810;8.872;2023-05-22T12:06:25;96253.22;;;30.50;42.49
3697;BME280;60662;48.810;8.872;2023-05-22T12:07:27;96250.25;;;30.38;41.40
3697;BME280;60662;48.810;8.872;2023-05-22T12:08:28;96246.22;;;30.75;41.38
3697;BME280;60662;48.810;8.872;2023-05-22T12:09:30;96248.47;;;30.58;42.16
3697;BME280;60662;48.810;8.872;2023-05-22T12:10:32;96250.69;;;30.41;41.59
3697;BME280;60662;48.810;8.872;2023-05-22T12:11:36;96262.75;;;29.90;42.16
3697;BME280;60662;48.810;8.872;2023-05-22T12:12:38;96253.63;;;29.91;42.33
3697;BME280;60662;48.810;8.872;2023-05-22T12:13:39;96252.25;;;30.16;42.73
3697;BME280;60662;48.810;8.872;2023-05-22T12:14:44;96254.28;;;30.69;41.97
3697;BME280;60662;48.810;8.872;2023-05-22T12:15:48;96254.09;;;30.84;41.21
3697;BME280;60662;48.810;8.872;2023-05-22T12:16:50;96246.63;;;30.66;41.29
3697;BME280;60662;48.810;8.872;2023-05-22T12:17:54;96245.06;;;30.29;41.44
3697;BME280;60662;48.810;8.872;2023-05-22T12:18:56;96246.75;;;30.37;42.24
3697;BME280;60662;48.810;8.872;2023-05-22T12:19:58;96242.63;;;30.41;42.59
3697;BME280;60662;48.810;8.872;2023-05-22T12:20:59;96248.50;;;30.78;42.44
3697;BME280;60662;48.810;8.872;2023-05-22T12:22:03;96244.31;;;30.49;41.65
3697;BME280;60662;48.810;8.872;2023-05-22T12:23:10;96248.50;;;30.72;42.80
3697;BME280;60662;48.810;8.872;2023-05-22T12:24:11;96244.78;;;31.33;41.83
3697;BME280;60662;48.810;8.872;2023-05-22T12:25:14;96245.81;;;31.32;41.87
3697;BME280;60662;48.810;8.872;2023-05-22T12:26:18;96250.56;;;31.43;41.63
3697;BME280;60662;48.810;8.872;2023-05-22T12:27:20;96248.91;;;31.42;42.25
3697;BME280;60662;48.810;8.872;2023-05-22T12:28:21;96252.66;;;30.12;43.13
3697;BME280;60662;48.810;8.872;2023-05-22T12:29:23;96248.53;;;31.12;43.39
3697;BME280;60662;48.810;8.872;2023-05-22T12:30:25;96258.69;;;31.17;42.84
3697;BME280;60662;48.810;8.872;2023-05-22T12:31:27;96249.09;;;31.48;41.91
3697;BME280;60662;48.810;8.872;2023-05-22T12:32:28;96251.19;;;31.32;42.98
3697;BME280;60662;48.810;8.872;2023-05-22T12:33:30;96249.75;;;30.96;42.60